| time (UTC) | temp F | wind direction | speed MPH | gust MPH | rain 1hr in | rain 24hr in | rain mn in | humidity % | barometer mb |
| 20260509041600 | 39 | 272 | 0.0 | 1.0 | 0.00 | 0.00 | 0.00 | 75 | 1013.4 |
| 20260509040109 | 39 | 276 | 0.0 | 1.0 | 0.00 | 0.00 | 0.00 | 74 | 1013.3 |
| 20260509034556 | 40 | 281 | 0.0 | 1.0 | 0.00 | 0.00 | 0.00 | 73 | 1013.2 |
| 20260509033114 | 41 | 281 | 0.0 | 2.0 | 0.00 | 0.00 | 0.00 | 72 | 1013.1 |
| 20260509031552 | 41 | 278 | 0.0 | 2.0 | 0.00 | 0.00 | 0.00 | 73 | 1012.9 |
| 20260509030052 | 40 | 245 | 0.0 | 1.0 | 0.00 | 0.00 | 0.00 | 74 | 1012.8 |
| 20260509024558 | 41 | 252 | 0.0 | 1.0 | 0.00 | 0.00 | 0.00 | 72 | 1012.7 |
| 20260509023049 | 41 | 236 | 0.0 | 1.0 | 0.00 | 0.00 | 0.00 | 70 | 1012.6 |
| 20260509021548 | 43 | 272 | 0.0 | 1.0 | 0.00 | 0.00 | 0.00 | 68 | 1012.4 |
| 20260509020056 | 43 | 248 | 0.0 | 1.0 | 0.00 | 0.00 | 0.00 | 66 | 1012.3 |
| 20260509014544 | 45 | 172 | 0.0 | 2.0 | 0.00 | 0.00 | 0.00 | 62 | 1012.1 |
| 20260509013042 | 46 | 266 | 0.0 | 1.0 | 0.00 | 0.00 | 0.00 | 60 | 1011.9 |
| 20260509011544 | 47 | 276 | 0.0 | 1.0 | 0.00 | 0.00 | 0.00 | 58 | 1011.6 |
| 20260509010040 | 47 | 261 | 0.0 | 1.0 | 0.00 | 0.00 | 0.00 | 55 | 1011.4 |
| 20260509004535 | 47 | 270 | 0.0 | 2.0 | 0.00 | 0.00 | 0.00 | 52 | 1011.1 |
| 20260509003036 | 48 | 214 | 0.0 | 2.0 | 0.00 | 0.00 | 0.00 | 49 | 1011.0 |
| 20260509001531 | 49 | 297 | 0.0 | 1.0 | 0.00 | 0.00 | 0.00 | 44 | 1010.7 |
| 20260509000030 | 50 | 284 | 0.0 | 3.0 | 0.00 | 0.00 | 0.00 | 42 | 1010.5 |
| 20260508234530 | 50 | 302 | 0.0 | 4.0 | 0.00 | 0.00 | 0.00 | 40 | 1010.3 |
| 20260508233034 | 51 | 288 | 0.0 | 4.0 | 0.00 | 0.00 | 0.00 | 40 | 1010.1 |
| 20260508231526 | 51 | 289 | 2.0 | 7.0 | 0.00 | 0.00 | 0.00 | 39 | 1010.0 |
| 20260508230026 | 52 | 292 | 5.0 | 12.0 | 0.00 | 0.00 | 0.00 | 40 | 1009.9 |
| 20260508224525 | 52 | 300 | 8.0 | 13.0 | 0.00 | 0.00 | 0.00 | 37 | 1009.7 |
| 20260508223024 | 52 | 290 | 10.0 | 16.0 | 0.00 | 0.00 | 0.00 | 35 | 1009.7 |
| 20260508221525 | 52 | 312 | 5.0 | 12.0 | 0.00 | 0.00 | 0.00 | 39 | 1009.7 |
| 20260508220023 | 52 | 302 | 9.0 | 18.0 | 0.00 | 0.00 | 0.00 | 36 | 1009.4 |
| 20260508214526 | 52 | 286 | 4.0 | 14.0 | 0.00 | 0.00 | 0.00 | 41 | 1009.5 |
| 20260508213020 | 52 | 337 | 7.0 | 18.0 | 0.00 | 0.00 | 0.00 | 40 | 1009.5 |
| 20260508211519 | 51 | 300 | 6.0 | 21.0 | 0.00 | 0.00 | 0.00 | 38 | 1009.5 |
| 20260508210030 | 52 | 276 | 14.0 | 22.0 | 0.00 | 0.00 | 0.00 | 38 | 1009.4 |
| 20260508204518 | 51 | 323 | 9.0 | 15.0 | 0.00 | 0.00 | 0.00 | 41 | 1009.2 |
| 20260508203015 | 51 | 291 | 6.0 | 13.0 | 0.00 | 0.00 | 0.00 | 42 | 1009.2 |
| 20260508201514 | 50 | 309 | 10.0 | 17.0 | 0.00 | 0.00 | 0.00 | 43 | 1009.3 |
| 20260508200015 | 50 | 328 | 11.0 | 19.0 | 0.00 | 0.00 | 0.00 | 46 | 1009.3 |
| 20260508194512 | 51 | 300 | 4.0 | 15.0 | 0.00 | 0.00 | 0.00 | 42 | 1009.3 |
| 20260508193013 | 50 | 313 | 13.0 | 19.0 | 0.00 | 0.00 | 0.00 | 44 | 1009.2 |
| 20260508191511 | 50 | 350 | 5.0 | 11.0 | 0.00 | 0.00 | 0.00 | 48 | 1009.3 |
| 20260508190012 | 49 | 334 | 13.0 | 20.0 | 0.00 | 0.00 | 0.00 | 48 | 1009.4 |
| 20260508184517 | 49 | 338 | 7.0 | 13.0 | 0.00 | 0.00 | 0.00 | 48 | 1009.5 |
| 20260508183010 | 49 | 335 | 1.0 | 16.0 | 0.00 | 0.00 | 0.00 | 45 | 1009.6 |
| 20260508181509 | 48 | 293 | 13.0 | 22.0 | 0.00 | 0.00 | 0.00 | 43 | 1009.8 |
| 20260508180008 | 49 | 320 | 10.0 | 15.0 | 0.00 | 0.00 | 0.00 | 46 | 1009.7 |
| 20260508174509 | 48 | 291 | 8.0 | 20.0 | 0.00 | 0.00 | 0.00 | 46 | 1009.9 |
| 20260508173006 | 49 | 310 | 9.0 | 23.0 | 0.00 | 0.00 | 0.00 | 48 | 1010.0 |
| 20260508171507 | 49 | 241 | 2.0 | 7.0 | 0.00 | 0.00 | 0.00 | 45 | 1010.0 |
| 20260508170006 | 48 | 285 | 6.0 | 23.0 | 0.00 | 0.00 | 0.00 | 45 | 1010.0 |
| 20260508164507 | 48 | 316 | 14.0 | 20.0 | 0.00 | 0.00 | 0.00 | 51 | 1010.1 |
| 20260508163008 | 48 | 265 | 9.0 | 22.0 | 0.00 | 0.00 | 0.00 | 46 | 1010.0 |
| 20260508161504 | 48 | 301 | 11.0 | 23.0 | 0.00 | 0.00 | 0.00 | 46 | 1009.8 |
| 20260508160003 | 49 | 290 | 12.0 | 22.0 | 0.00 | 0.00 | 0.00 | 44 | 1009.6 |
| 20260508154502 | 50 | 288 | 6.0 | 14.0 | 0.00 | 0.00 | 0.00 | 43 | 1009.4 |
| 20260508153004 | 49 | 354 | 4.0 | 20.0 | 0.00 | 0.00 | 0.00 | 44 | 1009.3 |
| 20260508151601 | 48 | 325 | 5.0 | 21.0 | 0.00 | 0.00 | 0.00 | 43 | 1009.5 |
| 20260508150101 | 49 | 260 | 5.0 | 26.0 | 0.00 | 0.00 | 0.00 | 43 | 1009.4 |
| 20260508144559 | 49 | 283 | 13.0 | 20.0 | 0.00 | 0.00 | 0.00 | 39 | 1009.3 |
| 20260508143116 | 50 | 291 | 4.0 | 20.0 | 0.00 | 0.00 | 0.00 | 40 | 1009.3 |
| 20260508141600 | 50 | 145 | 1.0 | 9.0 | 0.00 | 0.00 | 0.00 | 38 | 1009.4 |
| 20260508140112 | 50 | 307 | 2.0 | 8.0 | 0.00 | 0.00 | 0.00 | 39 | 1009.5 |
| 20260508134551 | 49 | 320 | 5.0 | 18.0 | 0.00 | 0.00 | 0.00 | 40 | 1009.6 |
| 20260508133048 | 48 | 335 | 4.0 | 11.0 | 0.00 | 0.00 | 0.00 | 47 | 1009.7 |
| 20260508131545 | 47 | 269 | 5.0 | 14.0 | 0.00 | 0.00 | 0.00 | 46 | 1009.8 |
| 20260508130042 | 46 | 60 | 3.0 | 12.0 | 0.00 | 0.00 | 0.00 | 51 | 1010.0 |
| 20260508124537 | 45 | 351 | 0.0 | 3.0 | 0.00 | 0.00 | 0.00 | 62 | 1009.9 |
| 20260508123036 | 44 | 304 | 2.0 | 5.0 | 0.00 | 0.00 | 0.00 | 64 | 1009.9 |
| 20260508121533 | 43 | 321 | 2.0 | 5.0 | 0.00 | 0.00 | 0.00 | 66 | 1010.0 |
| 20260508120028 | 42 | 318 | 0.0 | 4.0 | 0.00 | 0.00 | 0.00 | 71 | 1010.0 |
| 20260508114524 | 41 | 8 | 0.0 | 2.0 | 0.00 | 0.00 | 0.00 | 79 | 1010.0 |
| 20260508113021 | 39 | 14 | 0.0 | 1.0 | 0.00 | 0.00 | 0.00 | 84 | 1009.9 |
| 20260508111517 | 36 | 354 | 0.0 | 1.0 | 0.00 | 0.00 | 0.00 | 89 | 1009.7 |
| 20260508110028 | 34 | 20 | 0.0 | 2.0 | 0.00 | 0.00 | 0.00 | 90 | 1009.7 |
| 20260508104516 | 34 | 36 | 0.0 | 2.0 | 0.00 | 0.00 | 0.00 | 92 | 1009.6 |
| 20260508103033 | 33 | 21 | 0.0 | 2.0 | 0.00 | 0.00 | 0.00 | 93 | 1009.4 |
| 20260508101511 | 32 | 352 | 0.0 | 2.0 | 0.00 | 0.00 | 0.00 | 93 | 1009.3 |
| 20260508100007 | 32 | 347 | 0.0 | 1.0 | 0.00 | 0.00 | 0.00 | 93 | 1009.1 |
| 20260508094506 | 32 | 25 | 0.0 | 3.0 | 0.00 | 0.00 | 0.00 | 93 | 1009.0 |
| 20260508093007 | 31 | 1 | 0.0 | 0.0 | 0.00 | 0.00 | 0.00 | 92 | 1008.9 |
| 20260508091502 | 31 | 1 | 0.0 | 0.0 | 0.00 | 0.00 | 0.00 | 92 | 1008.8 |
| 20260508090002 | 31 | 195 | 0.0 | 0.0 | 0.00 | 0.00 | 0.00 | 92 | 1008.7 |
| 20260508084559 | 31 | 195 | 0.0 | 0.0 | 0.00 | 0.00 | 0.00 | 92 | 1008.7 |
| 20260508081613 | 31 | 195 | 0.0 | 1.0 | 0.00 | 0.00 | 0.00 | 91 | 1008.6 |
| 20260508080100 | 33 | 24 | 0.0 | 2.0 | 0.00 | 0.00 | 0.00 | 91 | 1008.4 |
| 20260508074558 | 31 | 153 | 0.0 | 0.0 | 0.00 | 0.00 | 0.00 | 90 | 1008.3 |
| 20260508073053 | 31 | 153 | 0.0 | 0.0 | 0.00 | 0.00 | 0.00 | 90 | 1008.2 |
| 20260508071550 | 32 | 153 | 0.0 | 0.0 | 0.00 | 0.00 | 0.00 | 89 | 1008.2 |
| 20260508070048 | 32 | 110 | 0.0 | 1.0 | 0.00 | 0.00 | 0.00 | 89 | 1008.3 |
| 20260508064546 | 33 | 49 | 0.0 | 1.0 | 0.00 | 0.00 | 0.00 | 88 | 1008.4 |
| 20260508063045 | 34 | 32 | 0.0 | 1.0 | 0.00 | 0.00 | 0.00 | 89 | 1008.3 |
| 20260508061543 | 33 | 41 | 0.0 | 1.0 | 0.00 | 0.00 | 0.00 | 89 | 1008.3 |
| 20260508060055 | 34 | 174 | 0.0 | 0.0 | 0.00 | 0.00 | 0.00 | 87 | 1008.3 |
| 20260508054610 | 34 | 174 | 0.0 | 0.0 | 0.00 | 0.00 | 0.00 | 86 | 1008.5 |
| 20260508053046 | 34 | 174 | 0.0 | 1.0 | 0.00 | 0.00 | 0.00 | 84 | 1008.7 |
| 20260508051531 | 34 | 172 | 0.0 | 0.0 | 0.00 | 0.00 | 0.00 | 83 | 1008.9 |
| 20260508050034 | 34 | 172 | 0.0 | 0.0 | 0.00 | 0.00 | 0.00 | 79 | 1008.9 |
| 20260508044529 | 35 | 172 | 0.0 | 0.0 | 0.00 | 0.00 | 0.00 | 78 | 1008.9 |
| 20260508043033 | 36 | 172 | 0.0 | 1.0 | 0.00 | 0.00 | 0.00 | 75 | 1008.9 |